DHK867 EGNX-EBBR
Flight info
| Callsign | DHK867 |
|---|---|
| Flight time | 0h 52m |
| Altitude | 29000 |
| Route | SAPCO UY53 DTY UM605 BENSU Q70 KOK |
| Aircraft | B77L/H-SDE1E2E3FGHIJ2J3J4J5M1RWXYZ/LB1D1 |
Departure
| Time | 2026-05-07 18:45 |
|---|---|
| Airport | East Midlands Airport (EGNX) |
Arrival
| Time | 2026-05-07 19:38 |
|---|---|
| Airport | Brussels Airport (EBBR) |
| Time | Latitude | Longitude | Altitude | Speed | Heading |
|---|---|---|---|---|---|
| 2026-05-07 18:16 | 52.82752 | -1.35037 | 305 ft | 0 kts | 178° |
| 2026-05-07 18:35 | 52.82753 | -1.35037 | 305 ft | 2 kts | 178° |
| 2026-05-07 18:36 | 52.82778 | -1.35038 | 304 ft | 3 kts | 178° |
| 2026-05-07 18:36 | 52.82784 | -1.35039 | 304 ft | 0 kts | 178° |
| 2026-05-07 18:40 | 52.82778 | -1.35035 | 305 ft | 2 kts | 159° |
| 2026-05-07 18:40 | 52.82771 | -1.35008 | 309 ft | 3 kts | 95° |
| 2026-05-07 18:41 | 52.82787 | -1.34957 | 307 ft | 8 kts | 59° |
| 2026-05-07 18:41 | 52.82816 | -1.34845 | 307 ft | 13 kts | 78° |
| 2026-05-07 18:41 | 52.82828 | -1.34664 | 306 ft | 18 kts | 84° |
| 2026-05-07 18:41 | 52.82846 | -1.34457 | 309 ft | 15 kts | 52° |
| 2026-05-07 18:42 | 52.82896 | -1.34482 | 309 ft | 9 kts | 293° |
| 2026-05-07 18:42 | 52.82904 | -1.34605 | 311 ft | 13 kts | 268° |
| 2026-05-07 18:42 | 52.82901 | -1.34744 | 309 ft | 11 kts | 267° |
| 2026-05-07 18:42 | 52.82901 | -1.34867 | 310 ft | 10 kts | 273° |
| 2026-05-07 18:43 | 52.82937 | -1.34930 | 312 ft | 0 kts | 352° |
| 2026-05-07 18:43 | 52.82940 | -1.34931 | 312 ft | 1 kts | 352° |
| 2026-05-07 18:43 | 52.82956 | -1.34933 | 311 ft | 7 kts | 355° |
| 2026-05-07 18:44 | 52.83050 | -1.34899 | 310 ft | 17 kts | 49° |
| 2026-05-07 18:44 | 52.83063 | -1.34790 | 308 ft | 0 kts | 89° |
| 2026-05-07 18:44 | 52.83072 | -1.34404 | 307 ft | 72 kts | 88° |
| 2026-05-07 18:45 | 52.83094 | -1.33199 | 314 ft | 136 kts | 88° |
| 2026-05-07 18:45 | 52.83110 | -1.31387 | 453 ft | 167 kts | 89° |
| 2026-05-07 18:45 | 52.83126 | -1.29428 | 934 ft | 172 kts | 96° |
| 2026-05-07 18:45 | 52.83021 | -1.27460 | 1630 ft | 171 kts | 99° |
| 2026-05-07 18:46 | 52.82862 | -1.25492 | 2271 ft | 176 kts | 104° |
| 2026-05-07 18:46 | 52.82448 | -1.23536 | 2860 ft | 189 kts | 121° |
| 2026-05-07 18:46 | 52.81672 | -1.21708 | 3400 ft | 201 kts | 130° |
| 2026-05-07 18:46 | 52.80723 | -1.19761 | 3682 ft | 233 kts | 131° |
| 2026-05-07 18:47 | 52.79667 | -1.17659 | 4340 ft | 248 kts | 131° |
| 2026-05-07 18:47 | 52.78540 | -1.15433 | 5171 ft | 258 kts | 131° |
| 2026-05-07 18:47 | 52.77365 | -1.13111 | 6050 ft | 268 kts | 131° |
| 2026-05-07 18:47 | 52.76155 | -1.10714 | 6926 ft | 275 kts | 131° |
| 2026-05-07 18:48 | 52.74923 | -1.08275 | 7894 ft | 278 kts | 131° |
| 2026-05-07 18:48 | 52.73660 | -1.05863 | 8809 ft | 278 kts | 139° |
| 2026-05-07 18:48 | 52.71965 | -1.04382 | 9527 ft | 279 kts | 173° |
| 2026-05-07 18:48 | 52.70045 | -1.04485 | 10387 ft | 276 kts | 190° |
| 2026-05-07 18:49 | 52.68075 | -1.04865 | 10817 ft | 298 kts | 186° |
| 2026-05-07 18:49 | 52.65904 | -1.05132 | 11040 ft | 327 kts | 185° |
| 2026-05-07 18:49 | 52.63577 | -1.05395 | 11300 ft | 352 kts | 185° |
| 2026-05-07 18:49 | 52.61091 | -1.05686 | 12037 ft | 362 kts | 185° |
| 2026-05-07 18:50 | 52.58544 | -1.06001 | 12937 ft | 368 kts | 185° |
| 2026-05-07 18:50 | 52.55973 | -1.06331 | 13921 ft | 372 kts | 185° |
| 2026-05-07 18:50 | 52.53383 | -1.06671 | 14781 ft | 376 kts | 185° |
| 2026-05-07 18:50 | 52.50749 | -1.07022 | 15565 ft | 382 kts | 185° |
| 2026-05-07 18:51 | 52.48073 | -1.07382 | 16324 ft | 388 kts | 186° |
| 2026-05-07 18:51 | 52.45361 | -1.07747 | 17101 ft | 394 kts | 186° |
| 2026-05-07 18:51 | 52.42604 | -1.08118 | 17899 ft | 399 kts | 186° |
| 2026-05-07 18:51 | 52.39818 | -1.08492 | 18644 ft | 404 kts | 186° |
| 2026-05-07 18:52 | 52.37002 | -1.08869 | 19340 ft | 408 kts | 186° |
| 2026-05-07 18:52 | 52.34156 | -1.09249 | 20054 ft | 412 kts | 186° |
| 2026-05-07 18:52 | 52.31286 | -1.09633 | 20757 ft | 416 kts | 186° |
| 2026-05-07 18:52 | 52.28422 | -1.10013 | 21440 ft | 420 kts | 186° |
| 2026-05-07 18:53 | 52.25496 | -1.10400 | 22089 ft | 424 kts | 186° |
| 2026-05-07 18:53 | 52.22538 | -1.10793 | 22748 ft | 428 kts | 186° |
| 2026-05-07 18:53 | 52.19545 | -1.11060 | 23410 ft | 434 kts | 182° |
| 2026-05-07 18:53 | 52.16508 | -1.10817 | 23977 ft | 439 kts | 176° |
| 2026-05-07 18:54 | 52.13465 | -1.10052 | 24523 ft | 445 kts | 171° |
| 2026-05-07 18:54 | 52.10425 | -1.09002 | 25065 ft | 448 kts | 170° |
| 2026-05-07 18:54 | 52.07353 | -1.07946 | 25590 ft | 452 kts | 171° |
| 2026-05-07 18:54 | 52.04254 | -1.06911 | 26122 ft | 455 kts | 171° |
| 2026-05-07 18:55 | 52.01183 | -1.05909 | 26619 ft | 458 kts | 171° |
| 2026-05-07 18:55 | 51.98039 | -1.04889 | 27165 ft | 462 kts | 171° |
| 2026-05-07 18:55 | 51.94880 | -1.03847 | 27693 ft | 464 kts | 171° |
| 2026-05-07 18:55 | 51.91712 | -1.02792 | 28369 ft | 464 kts | 171° |
| 2026-05-07 18:56 | 51.88552 | -1.01740 | 29025 ft | 464 kts | 171° |
| 2026-05-07 18:56 | 51.82225 | -0.99660 | 29023 ft | 461 kts | 171° |
| 2026-05-07 18:57 | 51.75945 | -0.97652 | 29033 ft | 458 kts | 171° |
| 2026-05-07 18:57 | 51.69695 | -0.95659 | 29017 ft | 458 kts | 171° |
| 2026-05-07 18:58 | 51.63434 | -0.93654 | 29040 ft | 457 kts | 170° |
| 2026-05-07 18:58 | 51.60435 | -0.91961 | 29018 ft | 463 kts | 153° |
| 2026-05-07 18:58 | 51.57854 | -0.88796 | 29058 ft | 471 kts | 136° |
| 2026-05-07 18:58 | 51.55880 | -0.84555 | 29038 ft | 478 kts | 120° |
| 2026-05-07 18:59 | 51.54581 | -0.79641 | 29049 ft | 478 kts | 113° |
| 2026-05-07 18:59 | 51.52156 | -0.69654 | 29054 ft | 482 kts | 114° |
| 2026-05-07 19:00 | 51.49634 | -0.59671 | 29047 ft | 483 kts | 114° |
| 2026-05-07 19:00 | 51.47102 | -0.49865 | 29035 ft | 468 kts | 115° |
| 2026-05-07 19:01 | 51.44618 | -0.40320 | 29047 ft | 466 kts | 115° |
| 2026-05-07 19:01 | 51.42118 | -0.30748 | 29049 ft | 465 kts | 115° |
| 2026-05-07 19:02 | 51.39620 | -0.21212 | 29050 ft | 464 kts | 115° |
| 2026-05-07 19:02 | 51.37118 | -0.11694 | 29056 ft | 464 kts | 115° |
| 2026-05-07 19:03 | 51.34617 | -0.02160 | 29055 ft | 465 kts | 113° |
| 2026-05-07 19:03 | 51.32928 | 0.07863 | 29060 ft | 469 kts | 101° |
| 2026-05-07 19:03 | 51.32545 | 0.13069 | 28958 ft | 475 kts | 96° |
| 2026-05-07 19:04 | 51.32311 | 0.18364 | 28933 ft | 479 kts | 95° |
| 2026-05-07 19:04 | 51.31879 | 0.28995 | 28887 ft | 478 kts | 95° |
| 2026-05-07 19:05 | 51.31398 | 0.39565 | 28870 ft | 476 kts | 96° |
| 2026-05-07 19:05 | 51.30879 | 0.50114 | 28865 ft | 475 kts | 96° |
| 2026-05-07 19:06 | 51.30354 | 0.60647 | 28904 ft | 476 kts | 95° |
| 2026-05-07 19:06 | 51.29773 | 0.76512 | 28971 ft | 477 kts | 94° |
| 2026-05-07 19:07 | 51.29398 | 0.87108 | 29020 ft | 478 kts | 95° |
| 2026-05-07 19:07 | 51.28998 | 0.97668 | 29064 ft | 479 kts | 95° |
| 2026-05-07 19:08 | 51.28581 | 1.08315 | 29068 ft | 480 kts | 95° |
| 2026-05-07 19:08 | 51.28159 | 1.18777 | 29050 ft | 462 kts | 95° |
| 2026-05-07 19:09 | 51.27738 | 1.28957 | 29072 ft | 458 kts | 95° |
| 2026-05-07 19:09 | 51.27311 | 1.39117 | 29071 ft | 459 kts | 95° |
| 2026-05-07 19:10 | 51.26875 | 1.49293 | 29067 ft | 459 kts | 95° |
| 2026-05-07 19:10 | 51.26436 | 1.59404 | 29075 ft | 460 kts | 95° |
| 2026-05-07 19:11 | 51.25988 | 1.69588 | 29052 ft | 459 kts | 95° |
| 2026-05-07 19:11 | 51.25763 | 1.74657 | 28924 ft | 457 kts | 95° |
| 2026-05-07 19:11 | 51.25535 | 1.79722 | 28738 ft | 457 kts | 95° |
| 2026-05-07 19:12 | 51.25305 | 1.84773 | 28552 ft | 456 kts | 95° |
| 2026-05-07 19:12 | 51.25074 | 1.89817 | 28392 ft | 455 kts | 95° |
| 2026-05-07 19:12 | 51.24841 | 1.94854 | 28225 ft | 455 kts | 95° |
| 2026-05-07 19:12 | 51.24606 | 1.99882 | 28056 ft | 454 kts | 95° |
| 2026-05-07 19:13 | 51.24339 | 2.04895 | 27898 ft | 452 kts | 98° |
| 2026-05-07 19:13 | 51.23741 | 2.09791 | 27853 ft | 447 kts | 106° |
| 2026-05-07 19:13 | 51.22963 | 2.14585 | 27824 ft | 443 kts | 106° |
| 2026-05-07 19:13 | 51.22210 | 2.19322 | 27798 ft | 440 kts | 105° |
| 2026-05-07 19:14 | 51.21475 | 2.24039 | 27771 ft | 436 kts | 105° |
| 2026-05-07 19:14 | 51.20748 | 2.28726 | 27746 ft | 433 kts | 105° |
| 2026-05-07 19:14 | 51.20026 | 2.33371 | 27716 ft | 430 kts | 105° |
| 2026-05-07 19:14 | 51.19311 | 2.37954 | 27570 ft | 424 kts | 105° |
| 2026-05-07 19:15 | 51.18599 | 2.42492 | 27200 ft | 419 kts | 105° |
| 2026-05-07 19:15 | 51.17893 | 2.46970 | 26786 ft | 415 kts | 105° |
| 2026-05-07 19:15 | 51.17190 | 2.51412 | 26370 ft | 412 kts | 105° |
| 2026-05-07 19:15 | 51.16498 | 2.55774 | 25931 ft | 410 kts | 105° |
| 2026-05-07 19:16 | 51.15790 | 2.60216 | 25503 ft | 407 kts | 105° |
| 2026-05-07 19:16 | 51.15103 | 2.64517 | 25102 ft | 405 kts | 105° |
| 2026-05-07 19:16 | 51.14410 | 2.68846 | 24708 ft | 402 kts | 105° |
| 2026-05-07 19:16 | 51.13720 | 2.73148 | 24323 ft | 399 kts | 105° |
| 2026-05-07 19:17 | 51.13033 | 2.77418 | 23942 ft | 397 kts | 105° |
| 2026-05-07 19:17 | 51.12349 | 2.81661 | 23546 ft | 395 kts | 106° |
| 2026-05-07 19:17 | 51.11669 | 2.85871 | 23130 ft | 391 kts | 106° |
| 2026-05-07 19:17 | 51.10995 | 2.90028 | 23081 ft | 386 kts | 106° |
| 2026-05-07 19:18 | 51.10321 | 2.94178 | 23078 ft | 388 kts | 106° |
| 2026-05-07 19:18 | 51.09639 | 2.98357 | 23084 ft | 392 kts | 106° |
| 2026-05-07 19:18 | 51.08953 | 3.02556 | 23068 ft | 392 kts | 106° |
| 2026-05-07 19:18 | 51.08274 | 3.06708 | 22631 ft | 384 kts | 106° |
| 2026-05-07 19:19 | 51.07606 | 3.10784 | 21971 ft | 379 kts | 106° |
| 2026-05-07 19:19 | 51.06943 | 3.14819 | 21196 ft | 376 kts | 106° |
| 2026-05-07 19:19 | 51.06282 | 3.18829 | 20436 ft | 373 kts | 106° |
| 2026-05-07 19:19 | 51.05625 | 3.22804 | 19740 ft | 369 kts | 106° |
| 2026-05-07 19:20 | 51.05194 | 3.25405 | 19320 ft | 366 kts | 106° |
| 2026-05-07 19:20 | 51.04550 | 3.29287 | 18674 ft | 361 kts | 106° |
| 2026-05-07 19:20 | 51.03913 | 3.33124 | 17952 ft | 356 kts | 105° |
| 2026-05-07 19:20 | 51.03274 | 3.36955 | 17330 ft | 359 kts | 106° |
| 2026-05-07 19:21 | 51.02637 | 3.40766 | 17005 ft | 354 kts | 106° |
| 2026-05-07 19:21 | 51.02010 | 3.44518 | 16671 ft | 349 kts | 106° |
| 2026-05-07 19:21 | 51.01387 | 3.48233 | 16270 ft | 346 kts | 106° |
| 2026-05-07 19:21 | 51.00768 | 3.51916 | 15845 ft | 345 kts | 106° |
| 2026-05-07 19:22 | 51.00149 | 3.55590 | 15430 ft | 343 kts | 106° |
| 2026-05-07 19:22 | 50.99533 | 3.59238 | 15043 ft | 341 kts | 106° |
| 2026-05-07 19:22 | 50.98921 | 3.62852 | 14656 ft | 338 kts | 106° |
| 2026-05-07 19:22 | 50.98311 | 3.66445 | 14274 ft | 336 kts | 106° |
| 2026-05-07 19:23 | 50.97705 | 3.70012 | 13895 ft | 334 kts | 106° |
| 2026-05-07 19:23 | 50.97102 | 3.73555 | 13466 ft | 332 kts | 106° |
| 2026-05-07 19:23 | 50.96509 | 3.77032 | 13048 ft | 329 kts | 106° |
| 2026-05-07 19:23 | 50.95914 | 3.80519 | 12691 ft | 325 kts | 106° |
| 2026-05-07 19:24 | 50.95328 | 3.83943 | 12501 ft | 316 kts | 106° |
| 2026-05-07 19:24 | 50.94761 | 3.87262 | 12297 ft | 308 kts | 106° |
| 2026-05-07 19:24 | 50.94206 | 3.90497 | 12049 ft | 301 kts | 106° |
| 2026-05-07 19:24 | 50.93656 | 3.93684 | 11698 ft | 298 kts | 106° |
| 2026-05-07 19:25 | 50.93111 | 3.96850 | 11304 ft | 296 kts | 105° |
| 2026-05-07 19:25 | 50.92909 | 4.00068 | 10791 ft | 296 kts | 83° |
| 2026-05-07 19:25 | 50.93350 | 4.03258 | 10364 ft | 297 kts | 74° |
| 2026-05-07 19:25 | 50.93948 | 4.06373 | 10031 ft | 294 kts | 72° |
| 2026-05-07 19:26 | 50.94563 | 4.09444 | 9658 ft | 291 kts | 72° |
| 2026-05-07 19:26 | 50.95180 | 4.12497 | 9274 ft | 289 kts | 72° |
| 2026-05-07 19:26 | 50.95796 | 4.15518 | 8904 ft | 287 kts | 72° |
| 2026-05-07 19:26 | 50.96410 | 4.18517 | 8527 ft | 285 kts | 72° |
| 2026-05-07 19:27 | 50.97022 | 4.21492 | 8172 ft | 282 kts | 72° |
| 2026-05-07 19:27 | 50.97631 | 4.24446 | 8093 ft | 282 kts | 72° |
| 2026-05-07 19:27 | 50.98246 | 4.27421 | 8080 ft | 284 kts | 72° |
| 2026-05-07 19:27 | 50.98861 | 4.30400 | 8071 ft | 283 kts | 72° |
| 2026-05-07 19:28 | 50.99475 | 4.33369 | 8065 ft | 282 kts | 72° |
| 2026-05-07 19:28 | 51.00084 | 4.36319 | 8072 ft | 281 kts | 72° |
| 2026-05-07 19:28 | 51.00685 | 4.39232 | 8075 ft | 281 kts | 72° |
| 2026-05-07 19:28 | 51.01294 | 4.42187 | 8077 ft | 281 kts | 72° |
| 2026-05-07 19:29 | 51.01902 | 4.45139 | 8069 ft | 280 kts | 72° |
| 2026-05-07 19:29 | 51.02507 | 4.48077 | 7849 ft | 280 kts | 72° |
| 2026-05-07 19:29 | 51.03110 | 4.51006 | 7519 ft | 277 kts | 72° |
| 2026-05-07 19:29 | 51.03709 | 4.53910 | 7122 ft | 276 kts | 72° |
| 2026-05-07 19:30 | 51.04303 | 4.56784 | 6656 ft | 271 kts | 72° |
| 2026-05-07 19:30 | 51.04892 | 4.59620 | 6049 ft | 270 kts | 72° |
| 2026-05-07 19:30 | 51.05476 | 4.62438 | 5483 ft | 266 kts | 72° |
| 2026-05-07 19:30 | 51.06038 | 4.65152 | 5121 ft | 255 kts | 72° |
| 2026-05-07 19:31 | 51.06579 | 4.67765 | 4874 ft | 243 kts | 72° |
| 2026-05-07 19:31 | 51.07097 | 4.70275 | 4637 ft | 235 kts | 72° |
| 2026-05-07 19:31 | 51.07472 | 4.72745 | 4248 ft | 228 kts | 90° |
| 2026-05-07 19:31 | 51.07062 | 4.75151 | 3781 ft | 227 kts | 124° |
| 2026-05-07 19:32 | 51.05912 | 4.76782 | 3465 ft | 217 kts | 151° |
| 2026-05-07 19:32 | 51.04598 | 4.77856 | 3203 ft | 208 kts | 152° |
| 2026-05-07 19:32 | 51.03348 | 4.78861 | 3021 ft | 195 kts | 152° |
| 2026-05-07 19:32 | 51.02129 | 4.79701 | 2731 ft | 189 kts | 169° |
| 2026-05-07 19:33 | 51.00840 | 4.79460 | 2312 ft | 188 kts | 201° |
| 2026-05-07 19:33 | 50.99744 | 4.78484 | 2054 ft | 177 kts | 226° |
| 2026-05-07 19:33 | 50.99082 | 4.76830 | 2082 ft | 185 kts | 240° |
| 2026-05-07 19:33 | 50.98430 | 4.75002 | 2045 ft | 194 kts | 242° |
| 2026-05-07 19:34 | 50.97831 | 4.73092 | 2007 ft | 191 kts | 244° |
| 2026-05-07 19:34 | 50.97277 | 4.71201 | 1995 ft | 188 kts | 245° |
| 2026-05-07 19:34 | 50.96736 | 4.69324 | 2004 ft | 187 kts | 245° |
| 2026-05-07 19:34 | 50.96195 | 4.67441 | 2039 ft | 187 kts | 245° |
| 2026-05-07 19:35 | 50.95654 | 4.65557 | 2002 ft | 188 kts | 245° |
| 2026-05-07 19:35 | 50.95114 | 4.63678 | 2006 ft | 188 kts | 245° |
| 2026-05-07 19:35 | 50.94571 | 4.61792 | 1744 ft | 184 kts | 245° |
| 2026-05-07 19:35 | 50.94062 | 4.60028 | 1487 ft | 168 kts | 245° |
| 2026-05-07 19:36 | 50.93600 | 4.58428 | 1302 ft | 154 kts | 245° |
| 2026-05-07 19:36 | 50.93154 | 4.56871 | 1100 ft | 156 kts | 245° |
| 2026-05-07 19:36 | 50.92704 | 4.55308 | 876 ft | 154 kts | 245° |
| 2026-05-07 19:36 | 50.92261 | 4.53773 | 661 ft | 152 kts | 246° |
| 2026-05-07 19:37 | 50.91824 | 4.52255 | 461 ft | 151 kts | 246° |
| 2026-05-07 19:37 | 50.91396 | 4.50772 | 264 ft | 152 kts | 245° |
| 2026-05-07 19:37 | 50.90954 | 4.49244 | 122 ft | 145 kts | 246° |
| 2026-05-07 19:37 | 50.90593 | 4.47988 | 125 ft | 106 kts | 245° |
| 2026-05-07 19:38 | 50.90348 | 4.47151 | 126 ft | 62 kts | 246° |
| 2026-05-07 19:38 | 50.90296 | 4.46720 | 128 ft | 31 kts | 295° |
| 2026-05-07 19:38 | 50.90336 | 4.46584 | 130 ft | 0 kts | 293° |
| 2026-05-07 19:40 | 50.90339 | 4.46569 | 130 ft | 4 kts | 291° |
| 2026-05-07 19:40 | 50.90346 | 4.46541 | 129 ft | 6 kts | 289° |
| 2026-05-07 19:40 | 50.90355 | 4.46480 | 134 ft | 7 kts | 278° |
| 2026-05-07 19:40 | 50.90357 | 4.46428 | 136 ft | 4 kts | 268° |
| 2026-05-07 19:41 | 50.90345 | 4.46351 | 137 ft | 10 kts | 250° |
| 2026-05-07 19:41 | 50.90316 | 4.46244 | 138 ft | 11 kts | 246° |
| 2026-05-07 19:41 | 50.90286 | 4.46139 | 139 ft | 10 kts | 246° |
| 2026-05-07 19:41 | 50.90257 | 4.46038 | 141 ft | 10 kts | 245° |
| 2026-05-07 19:42 | 50.90228 | 4.45937 | 142 ft | 10 kts | 245° |
| 2026-05-07 19:42 | 50.90200 | 4.45842 | 143 ft | 8 kts | 249° |
| 2026-05-07 19:42 | 50.90217 | 4.45798 | 143 ft | 5 kts | 325° |
| 2026-05-07 19:42 | 50.90248 | 4.45773 | 143 ft | 5 kts | 334° |
| 2026-05-07 19:43 | 50.90275 | 4.45752 | 143 ft | 3 kts | 335° |
| 2026-05-07 19:43 | 50.90278 | 4.45750 | 143 ft | 0 kts | 335° |